« Back
NWS Peachtree City, Ga » Text Product » CSG Terminal Aerodrome Forecast


Printer-friendly Version
Current Version              Previous Versions:   1  2  3  4  5  6  7  8  9  

Terminal Aerodrome Forecast

603
FTUS42 KFFC 031735
TAFCSG
TAF
KCSG 031735Z 0318/0418 34005KT P6SM BKN150
      TEMPO 0320/0323 -SHRA BKN030
     FM040000 30004KT P6SM SCT050 SCT150
     FM041400 01004KT P6SM FEW040 SCT250
     FM041700 04005KT P6SM SCT060 BKN250=



USA.gov is the U.S. government's official web portal to all federal, state and local government web resources and services.